Weather

SUNSHINE COAST  TAF / METAR

TAF YBSU 191643Z 1918/2006
21008KT 9999 -SHRA SCT025 BKN040
FM200100 17013KT 9999 -SHRA SCT025 BKN040
INTER 1918/2006 4000 SHRA BKN015
RMK
T 17 17 21 22 Q 1024 1025 1026 1024

METAR YBSU 192130Z AUTO 19009KT 9999 // SCT035 SCT043 BKN056 18/16
Q1026 RMK RF00.0/003.8

DOQ Compas Heading

Area Briefing TAF / METAR for 40

* AMBERLEY YAMB

TAF YAMB 191656Z 1918/2012
VRB03KT 9999 -DZ -SHRA SCT020 BKN030
FM192200 VRB04KT 9999 SCT030
FM200100 10008KT 9999 -SHRA SCT025 BKN045
FM200900 VRB04KT 9999 -SHRA SCT020 BKN035
PROB30 1918/1922 0500 FG
RMK
T 14 14 21 23 Q 1025 1026 1027 1024

METAR YAMB 192130Z 31004KT 9999 FEW014 SCT038 BKN250 14/13 Q1026
RMK RF00.0/000.6 SHALLOW FROUND FOG E-S

ARCHERFIELD YBAF

TAF AMD YBAF 192057Z 1921/2006
VRB03KT 9999 -SHRA SCT020 BKN040
FM192200 18007KT 9999 -SHRA SCT020 BKN040
FM200100 12010KT 9999 -SHRA SCT025 BKN040
INTER 2000/2006 3000 SHRA SCT012 BKN020
RMK
T 15 20 22 21 Q 1026 1027 1024 1023

METAR YBAF 192130Z AUTO 00000KT 9999 // SCT031 SCT044 SCT056 15/15
Q1027 RMK RF00.0/001.0

* BRISBANE YBBN

TAF YBBN 191717Z 1918/2024
20006KT 9999 -SHRA SCT025 BKN050
FM200100 08008KT 9999 -SHRA SCT025 BKN050
FM200800 14005KT 9999 -SHRA SCT030 BKN060
FM201400 20006KT 9999 -SHRA SCT025 BKN040
FM201800 20006KT 9999 SCT030
INTER 1918/2018 4000 SHRA SCT012 BKN025
RMK
T 17 17 21 22 Q 1025 1026 1027 1024

TTF METAR YBBN 192130Z 21008KT 9999 VCSH FEW018 BKN080 16/15 Q1026
RMK RF00.0/001.4
INTER 2130/0030 4000 SHRA SCT015 BKN025

BUNDABERG YBUD

TAF YBUD 191627Z 1918/2006
16007KT 9999 -SHRA SCT025 SCT050
FM200100 11014KT 9999 -SHRA SCT035
RMK
T 16 17 23 24 Q 1023 1024 1024 1022

METAR YBUD 192130Z AUTO 18008KT 9999 // SCT043 OVC055 17/16 Q1024
RMK RF00.0/000.0

EMERALD YEML

TAF YEML 191607Z 1918/2006
09010KT CAVOK
RMK
T 16 15 22 25 Q 1022 1024 1025 1022

METAR YEML 192130Z AUTO 17010KT 9999 // NCD 17/14 Q1024
RMK RF00.0/000.0

GAYNDAH YGAY

Nil current TAF.

METAR YGAY 192130Z AUTO 22001KT //// // ////// 14/13 Q1025 RMK
RF00.0/000.6

GLADSTONE YGLA

TAF AMD YGLA 191618Z 1917/2006
19007KT 9999 -SHRA SCT025
FM200000 14014KT 9999 SCT030
INTER 1917/1922 4000 SHRA BKN010
RMK
T 18 18 22 24 Q 1022 1023 1024 1023

METAR YGLA 192130Z AUTO 19006KT 9999 // SCT040 BKN066 OVC087 18/16
Q1024 RMK RF00.0/001.2

GOLD COAST YBCG

TAF YBCG 191712Z 1918/2018
20008KT 9999 -SHRA SCT025 BKN040
FM200100 17010KT 9999 -SHRA SCT025 BKN040
FM200700 21008KT 9999 -SHRA SCT030 BKN050
INTER 1918/2012 4000 SHRA SCT012 BKN025
RMK
T 17 18 21 22 Q 1025 1026 1027 1025

METAR YBCG 192130Z AUTO 22006KT 9999 // BKN022 OVC034 OVC040 17/17
Q1027 RMK RF00.0/009.4

GOONDIWINDI YGDI

Nil current TAF.

METAR/SPECI observations are not generated for this location.

HERVEY BAY YHBA

TAF AMD YHBA 191634Z 1918/2006
21007KT 9999 -SHRA SCT025 SCT050
FM192300 17010KT 9999 -SHRA SCT030 SCT050
FM200200 11013KT 9999 -SHRA SCT030 SCT050
INTER 1918/2006 4000 SHRA SCT012 BKN020
RMK
T 16 17 23 24 Q 1023 1024 1025 1023

METAR YHBA 192130Z AUTO 23002KT 7000 // SCT020 SCT036 SCT043 18/17
Q1025 RMK RF00.0/002.0

KINGAROY YKRY

TAF YKRY 191806Z 1920/2008
13005KT 9999 BKN010
FM192300 11010KT 9999 SCT020
FM200300 11008KT 9999 -SHRA SCT025 SCT040
TEMPO 1920/1924 9999 NSW BKN005
RMK
T 13 16 20 20 Q 1027 1028 1026 1024

SPECI YKRY 192130Z AUTO 15006KT 9999 // OVC006 15/14 Q1027 RMK
RF00.0/000.0

MARYBOROUGH YMYB

TAF YMYB 191805Z 1920/2008
18007KT 9999 -SHRA SCT025 BKN040
FM200000 13012KT 9999 -SHRA SCT030 SCT050
INTER 1920/2008 4000 SHRA SCT012 BKN020
RMK
T 16 20 23 23 Q 1025 1025 1024 1022

METAR YMYB 192130Z AUTO 18007KT 9999 // SCT073 BKN091 17/16 Q1025
RMK RF00.0/004.4

* OAKEY YBOK

TAF AMD YBOK 192024Z 1920/2006
11008KT 9999 SCT015
FM192300 09014KT 9999 SCT020
FM200200 09010KT 9999 SCT040
TEMPO 1920/1923 9999 -DZ BKN015
RMK
T 13 18 21 21 Q 1027 1028 1026 1024

TTF METAR YBOK 192130Z 27004KT 9999 FEW014 SCT210 13/13 Q1027
RMK RF00.0/000.0
TEMPO 2130/2300 9999 -DZ BKN015

ROCKHAMPTON YBRK

TAF YBRK 191726Z 1918/2018
14008KT 9999 SCT020 SCT030
FM200000 10012KT 9999 SCT030
RMK
T 17 17 23 26 Q 1022 1023 1024 1021

METAR YBRK 192130Z AUTO 11007KT 9999 // SCT088 19/14 Q1023 RMK
RF00.0/000.2

ROMA YROM

TAF YROM 191809Z 1920/2008
08005KT 9999 FEW015
FM192300 04008KT CAVOK
RMK
T 14 18 23 24 Q 1026 1027 1025 1023

METAR YROM 192130Z AUTO 01007KT 9999 // NCD 17/12 Q1026 RMK
RF00.0/000.0

ST GEORGE YSGE

TAF YSGE 191812Z 1920/2008
05008KT CAVOK
FM200400 10008KT CAVOK
RMK
T 16 19 22 24 Q 1025 1027 1025 1023

METAR YSGE 192130Z AUTO 06009KT 9999 // NCD 18/11 Q1026 RMK
RF00.0/000.0

SUNSHINE COAST YBSU

TAF YBSU 191643Z 1918/2006
21008KT 9999 -SHRA SCT025 BKN040
FM200100 17013KT 9999 -SHRA SCT025 BKN040
INTER 1918/2006 4000 SHRA BKN015
RMK
T 17 17 21 22 Q 1024 1025 1026 1024

METAR YBSU 192130Z AUTO 19009KT 9999 // SCT035 SCT043 BKN056 18/16
Q1026 RMK RF00.0/003.8

THANGOOL YTNG

TAF YTNG 191757Z 1920/2008
12010KT 9999 FEW040
RMK
T 14 20 25 25 Q 1024 1025 1023 1021

METAR YTNG 192130Z AUTO 14004KT 9999 // SCT069 SCT093 17/13 Q1025
RMK RF00.0/000.0

TOOWOOMBA YTWB

TAF AMD YTWB 192055Z 1920/2008
11012KT 9999 -DZ SCT008 BKN015
BECMG 1921/1923 08014KT 9999 BKN020
FM200100 09012KT 9999 -SHRA SCT025 SCT040
TEMPO 1920/1924 2000 DZ BKN005
RMK
T 14 15 17 18 Q 1028 1029 1028 1026

METAR YTWB 192130Z AUTO 10007KT 9999 // SCT011 SCT015 OVC020 14/13
Q1029 RMK RF00.0/000.0

WELLCAMP (BRISBANE WEST) YBWW

TAF AMD YBWW 192017Z 1920/2008
17005KT 9999 FEW015 BKN025
FM192300 11014KT 9999 SCT030
FM200200 09010KT 9999 SCT040
TEMPO 1920/1923 9999 NSW BKN015
RMK
T 13 18 20 21 Q 1026 1027 1026 1024

METAR YBWW 192130Z AUTO 18008KT //// // OVC025 13/10 Q1027 RMK
RF00.0/000.0

* Note: The latest TTF automatically supersedes the TAF for the 3 hr validity of the TTF, unless otherwise specified in the TTF.

DOQLD Area Briefing Map


Whole of Australia